sensor_id;sensor_type;location;lat;lon;timestamp;P1;durP1;ratioP1;P2;durP2;ratioP2
75793;SDS011;64418;47.536;19.074;2022-12-07T00:01:13;19.40;;;10.00;;
75793;SDS011;64418;47.536;19.074;2022-12-07T00:04:03;20.58;;;10.02;;
75793;SDS011;64418;47.536;19.074;2022-12-07T00:06:51;19.80;;;10.10;;
75793;SDS011;64418;47.536;19.074;2022-12-07T00:09:38;20.15;;;9.80;;
75793;SDS011;64418;47.536;19.074;2022-12-07T00:12:23;18.02;;;10.10;;
75793;SDS011;64418;47.536;19.074;2022-12-07T00:15:09;18.77;;;10.32;;
75793;SDS011;64418;47.536;19.074;2022-12-07T00:17:55;19.60;;;9.93;;
75793;SDS011;64418;47.536;19.074;2022-12-07T00:20:41;17.33;;;9.73;;
75793;SDS011;64418;47.536;19.074;2022-12-07T00:23:28;17.12;;;9.80;;
75793;SDS011;64418;47.536;19.074;2022-12-07T00:26:16;19.05;;;9.98;;
75793;SDS011;64418;47.536;19.074;2022-12-07T00:29:04;16.27;;;9.27;;
75793;SDS011;64418;47.536;19.074;2022-12-07T00:31:51;18.45;;;9.50;;
75793;SDS011;64418;47.536;19.074;2022-12-07T00:34:37;16.93;;;9.60;;
75793;SDS011;64418;47.536;19.074;2022-12-07T00:37:22;16.73;;;9.15;;
75793;SDS011;64418;47.536;19.074;2022-12-07T00:40:10;17.92;;;9.75;;
75793;SDS011;64418;47.536;19.074;2022-12-07T00:42:57;21.95;;;9.38;;
75793;SDS011;64418;47.536;19.074;2022-12-07T00:45:43;16.30;;;8.82;;
75793;SDS011;64418;47.536;19.074;2022-12-07T00:48:29;19.47;;;10.50;;
75793;SDS011;64418;47.536;19.074;2022-12-07T00:51:15;18.98;;;10.00;;
75793;SDS011;64418;47.536;19.074;2022-12-07T00:54:02;18.25;;;9.85;;
75793;SDS011;64418;47.536;19.074;2022-12-07T00:56:50;19.05;;;9.65;;
75793;SDS011;64418;47.536;19.074;2022-12-07T00:59:36;19.62;;;9.82;;
75793;SDS011;64418;47.536;19.074;2022-12-07T01:02:22;16.13;;;9.03;;
75793;SDS011;64418;47.536;19.074;2022-12-07T01:05:08;16.35;;;8.77;;
75793;SDS011;64418;47.536;19.074;2022-12-07T01:07:53;19.80;;;10.73;;
75793;SDS011;64418;47.536;19.074;2022-12-07T01:10:39;18.42;;;10.13;;
75793;SDS011;64418;47.536;19.074;2022-12-07T01:13:27;19.98;;;10.90;;
75793;SDS011;64418;47.536;19.074;2022-12-07T01:16:13;16.37;;;10.03;;
75793;SDS011;64418;47.536;19.074;2022-12-07T01:19:01;19.45;;;9.80;;
75793;SDS011;64418;47.536;19.074;2022-12-07T01:21:47;16.10;;;9.10;;
75793;SDS011;64418;47.536;19.074;2022-12-07T01:24:33;15.77;;;9.20;;
75793;SDS011;64418;47.536;19.074;2022-12-07T01:27:19;19.45;;;9.00;;
75793;SDS011;64418;47.536;19.074;2022-12-07T01:30:07;18.73;;;10.17;;
75793;SDS011;64418;47.536;19.074;2022-12-07T01:32:55;18.25;;;9.73;;
75793;SDS011;64418;47.536;19.074;2022-12-07T01:35:41;18.70;;;10.00;;
75793;SDS011;64418;47.536;19.074;2022-12-07T01:38:27;21.85;;;10.07;;
75793;SDS011;64418;47.536;19.074;2022-12-07T01:41:15;18.08;;;10.50;;
75793;SDS011;64418;47.536;19.074;2022-12-07T01:44:18;20.10;;;9.90;;
75793;SDS011;64418;47.536;19.074;2022-12-07T01:47:07;19.62;;;10.85;;
75793;SDS011;64418;47.536;19.074;2022-12-07T01:49:53;17.15;;;9.55;;
75793;SDS011;64418;47.536;19.074;2022-12-07T01:52:39;19.85;;;10.65;;
75793;SDS011;64418;47.536;19.074;2022-12-07T01:55:26;19.00;;;9.65;;
75793;SDS011;64418;47.536;19.074;2022-12-07T01:58:13;23.57;;;10.43;;
75793;SDS011;64418;47.536;19.074;2022-12-07T02:01:00;23.38;;;10.63;;
75793;SDS011;64418;47.536;19.074;2022-12-07T02:03:47;20.05;;;9.90;;
75793;SDS011;64418;47.536;19.074;2022-12-07T02:06:35;20.73;;;10.77;;
75793;SDS011;64418;47.536;19.074;2022-12-07T02:09:22;23.27;;;11.38;;
75793;SDS011;64418;47.536;19.074;2022-12-07T02:12:08;20.40;;;10.43;;
75793;SDS011;64418;47.536;19.074;2022-12-07T02:14:54;19.98;;;10.30;;
75793;SDS011;64418;47.536;19.074;2022-12-07T02:17:41;18.33;;;10.77;;
75793;SDS011;64418;47.536;19.074;2022-12-07T02:20:36;18.33;;;10.18;;
75793;SDS011;64418;47.536;19.074;2022-12-07T02:23:38;18.92;;;9.93;;
75793;SDS011;64418;47.536;19.074;2022-12-07T02:26:48;19.47;;;10.43;;
75793;SDS011;64418;47.536;19.074;2022-12-07T02:29:49;19.65;;;10.95;;
75793;SDS011;64418;47.536;19.074;2022-12-07T02:32:44;20.40;;;10.30;;
75793;SDS011;64418;47.536;19.074;2022-12-07T02:35:40;17.75;;;10.57;;
75793;SDS011;64418;47.536;19.074;2022-12-07T02:38:31;18.70;;;11.27;;
75793;SDS011;64418;47.536;19.074;2022-12-07T02:41:24;23.30;;;11.77;;
75793;SDS011;64418;47.536;19.074;2022-12-07T02:44:13;25.45;;;11.68;;
75793;SDS011;64418;47.536;19.074;2022-12-07T02:47:04;22.30;;;11.07;;
75793;SDS011;64418;47.536;19.074;2022-12-07T02:49:54;23.90;;;12.32;;
75793;SDS011;64418;47.536;19.074;2022-12-07T02:52:48;20.62;;;10.70;;
75793;SDS011;64418;47.536;19.074;2022-12-07T02:55:36;22.87;;;11.63;;
75793;SDS011;64418;47.536;19.074;2022-12-07T02:58:29;21.20;;;11.65;;
75793;SDS011;64418;47.536;19.074;2022-12-07T03:01:25;21.12;;;11.57;;
75793;SDS011;64418;47.536;19.074;2022-12-07T03:04:20;25.62;;;12.27;;
75793;SDS011;64418;47.536;19.074;2022-12-07T03:07:20;23.65;;;12.00;;
75793;SDS011;64418;47.536;19.074;2022-12-07T03:10:17;23.63;;;11.93;;
75793;SDS011;64418;47.536;19.074;2022-12-07T03:13:09;21.15;;;12.32;;
75793;SDS011;64418;47.536;19.074;2022-12-07T03:16:02;23.65;;;12.07;;
75793;SDS011;64418;47.536;19.074;2022-12-07T03:18:54;24.37;;;12.55;;
75793;SDS011;64418;47.536;19.074;2022-12-07T03:21:46;24.70;;;11.98;;
75793;SDS011;64418;47.536;19.074;2022-12-07T03:24:40;21.70;;;12.50;;
75793;SDS011;64418;47.536;19.074;2022-12-07T03:27:30;22.90;;;12.10;;
75793;SDS011;64418;47.536;19.074;2022-12-07T03:30:19;21.67;;;12.27;;
75793;SDS011;64418;47.536;19.074;2022-12-07T03:33:08;22.42;;;11.75;;
75793;SDS011;64418;47.536;19.074;2022-12-07T03:36:01;25.37;;;12.07;;
75793;SDS011;64418;47.536;19.074;2022-12-07T03:38:55;22.37;;;11.20;;
75793;SDS011;64418;47.536;19.074;2022-12-07T03:41:48;19.30;;;11.35;;
75793;SDS011;64418;47.536;19.074;2022-12-07T03:44:34;21.40;;;11.82;;
75793;SDS011;64418;47.536;19.074;2022-12-07T03:47:22;23.38;;;11.98;;
75793;SDS011;64418;47.536;19.074;2022-12-07T03:50:19;21.95;;;11.90;;
75793;SDS011;64418;47.536;19.074;2022-12-07T03:53:12;19.90;;;10.37;;
75793;SDS011;64418;47.536;19.074;2022-12-07T03:56:05;24.58;;;11.95;;
75793;SDS011;64418;47.536;19.074;2022-12-07T03:58:52;23.85;;;12.18;;
75793;SDS011;64418;47.536;19.074;2022-12-07T04:01:41;21.87;;;12.13;;
75793;SDS011;64418;47.536;19.074;2022-12-07T04:04:27;24.37;;;12.80;;
75793;SDS011;64418;47.536;19.074;2022-12-07T04:07:13;26.23;;;12.93;;
75793;SDS011;64418;47.536;19.074;2022-12-07T04:09:59;26.30;;;12.45;;
75793;SDS011;64418;47.536;19.074;2022-12-07T04:12:47;19.23;;;11.07;;
75793;SDS011;64418;47.536;19.074;2022-12-07T04:15:33;20.50;;;11.10;;
75793;SDS011;64418;47.536;19.074;2022-12-07T04:18:19;18.33;;;9.85;;
75793;SDS011;64418;47.536;19.074;2022-12-07T04:21:05;17.03;;;9.73;;
75793;SDS011;64418;47.536;19.074;2022-12-07T04:23:51;15.38;;;9.00;;
75793;SDS011;64418;47.536;19.074;2022-12-07T04:26:36;14.38;;;8.85;;
75793;SDS011;64418;47.536;19.074;2022-12-07T04:29:24;14.32;;;7.90;;
75793;SDS011;64418;47.536;19.074;2022-12-07T04:32:10;14.73;;;8.98;;
75793;SDS011;64418;47.536;19.074;2022-12-07T04:34:56;12.50;;;7.50;;
75793;SDS011;64418;47.536;19.074;2022-12-07T04:37:42;18.92;;;7.82;;
75793;SDS011;64418;47.536;19.074;2022-12-07T04:40:27;11.07;;;6.30;;
75793;SDS011;64418;47.536;19.074;2022-12-07T04:43:13;9.73;;;5.80;;
75793;SDS011;64418;47.536;19.074;2022-12-07T04:46:01;11.75;;;5.85;;
75793;SDS011;64418;47.536;19.074;2022-12-07T04:48:47;10.13;;;5.43;;
75793;SDS011;64418;47.536;19.074;2022-12-07T04:51:32;9.95;;;6.10;;
75793;SDS011;64418;47.536;19.074;2022-12-07T04:54:18;8.27;;;4.68;;
75793;SDS011;64418;47.536;19.074;2022-12-07T04:57:04;8.23;;;4.37;;
75793;SDS011;64418;47.536;19.074;2022-12-07T04:59:50;7.28;;;3.72;;
75793;SDS011;64418;47.536;19.074;2022-12-07T05:02:37;8.50;;;3.47;;
75793;SDS011;64418;47.536;19.074;2022-12-07T05:05:23;5.43;;;2.95;;
75793;SDS011;64418;47.536;19.074;2022-12-07T05:08:09;5.78;;;2.80;;
75793;SDS011;64418;47.536;19.074;2022-12-07T05:10:55;6.28;;;3.67;;
75793;SDS011;64418;47.536;19.074;2022-12-07T05:13:41;3.08;;;1.52;;
75793;SDS011;64418;47.536;19.074;2022-12-07T05:16:27;5.47;;;2.20;;
75793;SDS011;64418;47.536;19.074;2022-12-07T05:19:15;5.97;;;2.75;;
75793;SDS011;64418;47.536;19.074;2022-12-07T05:22:01;4.05;;;2.45;;
75793;SDS011;64418;47.536;19.074;2022-12-07T05:24:47;5.20;;;2.62;;
75793;SDS011;64418;47.536;19.074;2022-12-07T05:27:33;5.25;;;3.25;;
75793;SDS011;64418;47.536;19.074;2022-12-07T05:30:19;7.13;;;3.60;;
75793;SDS011;64418;47.536;19.074;2022-12-07T05:33:05;5.72;;;3.30;;
75793;SDS011;64418;47.536;19.074;2022-12-07T05:35:53;5.75;;;3.22;;
75793;SDS011;64418;47.536;19.074;2022-12-07T05:38:40;7.22;;;3.90;;
75793;SDS011;64418;47.536;19.074;2022-12-07T05:41:26;6.62;;;3.80;;
75793;SDS011;64418;47.536;19.074;2022-12-07T05:44:12;6.60;;;3.37;;
75793;SDS011;64418;47.536;19.074;2022-12-07T05:46:58;7.18;;;3.62;;
75793;SDS011;64418;47.536;19.074;2022-12-07T05:49:44;6.22;;;3.60;;
75793;SDS011;64418;47.536;19.074;2022-12-07T05:52:32;6.32;;;3.95;;
75793;SDS011;64418;47.536;19.074;2022-12-07T05:55:18;6.90;;;3.87;;
75793;SDS011;64418;47.536;19.074;2022-12-07T05:58:04;6.50;;;3.93;;
75793;SDS011;64418;47.536;19.074;2022-12-07T06:00:50;6.70;;;3.62;;
75793;SDS011;64418;47.536;19.074;2022-12-07T06:03:36;6.72;;;3.90;;
75793;SDS011;64418;47.536;19.074;2022-12-07T06:06:22;5.90;;;3.72;;
75793;SDS011;64418;47.536;19.074;2022-12-07T06:09:10;6.20;;;3.97;;
75793;SDS011;64418;47.536;19.074;2022-12-07T06:11:56;6.20;;;4.10;;
75793;SDS011;64418;47.536;19.074;2022-12-07T06:14:43;7.60;;;4.20;;
75793;SDS011;64418;47.536;19.074;2022-12-07T06:17:29;7.37;;;3.90;;
75793;SDS011;64418;47.536;19.074;2022-12-07T06:20:15;5.90;;;4.20;;
75793;SDS011;64418;47.536;19.074;2022-12-07T06:23:02;6.03;;;3.72;;
75793;SDS011;64418;47.536;19.074;2022-12-07T06:25:49;8.13;;;4.57;;
75793;SDS011;64418;47.536;19.074;2022-12-07T06:28:35;6.60;;;3.97;;
75793;SDS011;64418;47.536;19.074;2022-12-07T06:31:20;7.93;;;4.65;;
75793;SDS011;64418;47.536;19.074;2022-12-07T06:34:09;7.72;;;4.95;;
75793;SDS011;64418;47.536;19.074;2022-12-07T06:36:57;8.60;;;4.90;;
75793;SDS011;64418;47.536;19.074;2022-12-07T06:39:43;8.77;;;4.97;;
75793;SDS011;64418;47.536;19.074;2022-12-07T06:42:30;21.73;;;7.82;;
75793;SDS011;64418;47.536;19.074;2022-12-07T06:45:16;21.17;;;7.62;;
75793;SDS011;64418;47.536;19.074;2022-12-07T06:48:02;8.90;;;5.35;;
75793;SDS011;64418;47.536;19.074;2022-12-07T06:50:50;8.98;;;5.57;;
75793;SDS011;64418;47.536;19.074;2022-12-07T06:53:39;9.50;;;5.57;;
75793;SDS011;64418;47.536;19.074;2022-12-07T06:56:25;10.10;;;6.12;;
75793;SDS011;64418;47.536;19.074;2022-12-07T06:59:12;14.15;;;7.18;;
75793;SDS011;64418;47.536;19.074;2022-12-07T07:01:58;13.75;;;8.25;;
75793;SDS011;64418;47.536;19.074;2022-12-07T07:04:45;15.95;;;9.20;;
75793;SDS011;64418;47.536;19.074;2022-12-07T07:07:31;16.50;;;8.80;;
75793;SDS011;64418;47.536;19.074;2022-12-07T07:10:17;17.98;;;10.05;;
75793;SDS011;64418;47.536;19.074;2022-12-07T07:13:03;18.90;;;10.50;;
75793;SDS011;64418;47.536;19.074;2022-12-07T07:15:51;19.02;;;11.90;;
75793;SDS011;64418;47.536;19.074;2022-12-07T07:18:36;17.75;;;10.30;;
75793;SDS011;64418;47.536;19.074;2022-12-07T07:21:22;20.33;;;11.27;;
75793;SDS011;64418;47.536;19.074;2022-12-07T07:24:09;23.45;;;11.85;;
75793;SDS011;64418;47.536;19.074;2022-12-07T07:26:55;18.17;;;11.25;;
75793;SDS011;64418;47.536;19.074;2022-12-07T07:29:41;19.67;;;11.75;;
75793;SDS011;64418;47.536;19.074;2022-12-07T07:32:31;21.30;;;12.30;;
75793;SDS011;64418;47.536;19.074;2022-12-07T07:35:17;24.53;;;12.80;;
75793;SDS011;64418;47.536;19.074;2022-12-07T07:38:03;23.45;;;12.80;;
75793;SDS011;64418;47.536;19.074;2022-12-07T07:40:49;23.70;;;11.73;;
75793;SDS011;64418;47.536;19.074;2022-12-07T07:43:35;16.08;;;9.27;;
75793;SDS011;64418;47.536;19.074;2022-12-07T07:46:21;20.85;;;12.45;;
75793;SDS011;64418;47.536;19.074;2022-12-07T07:49:09;23.00;;;12.20;;
75793;SDS011;64418;47.536;19.074;2022-12-07T07:51:56;20.92;;;11.55;;
75793;SDS011;64418;47.536;19.074;2022-12-07T07:54:42;18.95;;;9.38;;
75793;SDS011;64418;47.536;19.074;2022-12-07T07:57:28;13.13;;;7.60;;
75793;SDS011;64418;47.536;19.074;2022-12-07T08:00:14;12.63;;;7.45;;
75793;SDS011;64418;47.536;19.074;2022-12-07T08:03:03;17.53;;;10.13;;
75793;SDS011;64418;47.536;19.074;2022-12-07T08:05:50;21.27;;;12.40;;
75793;SDS011;64418;47.536;19.074;2022-12-07T08:08:36;23.33;;;13.23;;
75793;SDS011;64418;47.536;19.074;2022-12-07T08:11:22;27.67;;;13.68;;
75793;SDS011;64418;47.536;19.074;2022-12-07T08:14:07;27.00;;;14.20;;
75793;SDS011;64418;47.536;19.074;2022-12-07T08:16:55;24.77;;;14.07;;
75793;SDS011;64418;47.536;19.074;2022-12-07T08:19:42;25.48;;;14.52;;
75793;SDS011;64418;47.536;19.074;2022-12-07T08:22:29;26.33;;;14.57;;
75793;SDS011;64418;47.536;19.074;2022-12-07T08:25:15;25.83;;;14.38;;
75793;SDS011;64418;47.536;19.074;2022-12-07T08:28:02;26.45;;;14.68;;
75793;SDS011;64418;47.536;19.074;2022-12-07T08:30:48;29.13;;;15.00;;
75793;SDS011;64418;47.536;19.074;2022-12-07T08:33:34;28.65;;;16.25;;
75793;SDS011;64418;47.536;19.074;2022-12-07T08:36:20;24.10;;;14.43;;
75793;SDS011;64418;47.536;19.074;2022-12-07T08:39:08;27.80;;;14.25;;
75793;SDS011;64418;47.536;19.074;2022-12-07T08:41:54;24.05;;;14.55;;
75793;SDS011;64418;47.536;19.074;2022-12-07T08:44:39;24.57;;;14.40;;
75793;SDS011;64418;47.536;19.074;2022-12-07T08:47:26;24.25;;;13.65;;
75793;SDS011;64418;47.536;19.074;2022-12-07T08:50:12;22.00;;;13.30;;
75793;SDS011;64418;47.536;19.074;2022-12-07T08:52:59;18.05;;;11.18;;
75793;SDS011;64418;47.536;19.074;2022-12-07T08:55:47;17.85;;;10.75;;
75793;SDS011;64418;47.536;19.074;2022-12-07T08:58:34;17.17;;;9.63;;
75793;SDS011;64418;47.536;19.074;2022-12-07T09:01:21;18.65;;;9.95;;
75793;SDS011;64418;47.536;19.074;2022-12-07T09:04:08;14.13;;;9.10;;
75793;SDS011;64418;47.536;19.074;2022-12-07T09:06:54;15.48;;;8.00;;
75793;SDS011;64418;47.536;19.074;2022-12-07T09:09:41;12.40;;;6.75;;
75793;SDS011;64418;47.536;19.074;2022-12-07T09:12:28;12.00;;;7.13;;
75793;SDS011;64418;47.536;19.074;2022-12-07T09:15:14;11.52;;;6.62;;
75793;SDS011;64418;47.536;19.074;2022-12-07T09:18:01;12.88;;;6.72;;
75793;SDS011;64418;47.536;19.074;2022-12-07T09:20:47;11.95;;;7.40;;
75793;SDS011;64418;47.536;19.074;2022-12-07T09:23:33;11.50;;;7.53;;
75793;SDS011;64418;47.536;19.074;2022-12-07T09:26:19;11.33;;;6.93;;
75793;SDS011;64418;47.536;19.074;2022-12-07T09:29:06;10.63;;;6.62;;
75793;SDS011;64418;47.536;19.074;2022-12-07T09:31:52;13.20;;;7.05;;
75793;SDS011;64418;47.536;19.074;2022-12-07T09:34:38;10.90;;;6.43;;
75793;SDS011;64418;47.536;19.074;2022-12-07T09:37:24;10.32;;;5.78;;
75793;SDS011;64418;47.536;19.074;2022-12-07T09:40:12;9.77;;;6.47;;
75793;SDS011;64418;47.536;19.074;2022-12-07T09:43:00;9.00;;;6.22;;
75793;SDS011;64418;47.536;19.074;2022-12-07T09:45:48;10.13;;;5.95;;
75793;SDS011;64418;47.536;19.074;2022-12-07T09:48:38;8.60;;;5.62;;
75793;SDS011;64418;47.536;19.074;2022-12-07T09:51:24;8.07;;;5.50;;
75793;SDS011;64418;47.536;19.074;2022-12-07T09:54:11;10.30;;;5.53;;
75793;SDS011;64418;47.536;19.074;2022-12-07T09:56:59;10.05;;;6.30;;
75793;SDS011;64418;47.536;19.074;2022-12-07T09:59:45;9.52;;;5.72;;
75793;SDS011;64418;47.536;19.074;2022-12-07T10:02:37;8.63;;;5.45;;
75793;SDS011;64418;47.536;19.074;2022-12-07T10:05:25;8.63;;;5.70;;
75793;SDS011;64418;47.536;19.074;2022-12-07T10:08:14;9.93;;;5.57;;
75793;SDS011;64418;47.536;19.074;2022-12-07T10:11:01;8.77;;;5.57;;
75793;SDS011;64418;47.536;19.074;2022-12-07T10:13:49;8.45;;;5.18;;
75793;SDS011;64418;47.536;19.074;2022-12-07T10:16:38;9.27;;;4.93;;
75793;SDS011;64418;47.536;19.074;2022-12-07T10:19:28;6.07;;;4.70;;
75793;SDS011;64418;47.536;19.074;2022-12-07T10:22:16;5.23;;;4.00;;
75793;SDS011;64418;47.536;19.074;2022-12-07T10:25:07;5.97;;;4.40;;
75793;SDS011;64418;47.536;19.074;2022-12-07T10:27:57;6.85;;;4.15;;
75793;SDS011;64418;47.536;19.074;2022-12-07T10:30:48;6.28;;;3.97;;
75793;SDS011;64418;47.536;19.074;2022-12-07T10:33:38;6.03;;;3.80;;
75793;SDS011;64418;47.536;19.074;2022-12-07T10:36:35;8.27;;;4.13;;
75793;SDS011;64418;47.536;19.074;2022-12-07T10:39:23;6.25;;;4.07;;
75793;SDS011;64418;47.536;19.074;2022-12-07T10:42:15;7.37;;;4.90;;
75793;SDS011;64418;47.536;19.074;2022-12-07T10:45:07;5.35;;;4.30;;
75793;SDS011;64418;47.536;19.074;2022-12-07T10:47:55;6.65;;;4.22;;
75793;SDS011;64418;47.536;19.074;2022-12-07T10:50:52;7.33;;;4.33;;
75793;SDS011;64418;47.536;19.074;2022-12-07T10:53:54;7.20;;;4.50;;
75793;SDS011;64418;47.536;19.074;2022-12-07T10:56:57;6.45;;;4.30;;
75793;SDS011;64418;47.536;19.074;2022-12-07T10:59:53;9.80;;;4.35;;
75793;SDS011;64418;47.536;19.074;2022-12-07T11:02:50;8.20;;;4.68;;
75793;SDS011;64418;47.536;19.074;2022-12-07T11:05:53;6.50;;;3.93;;
75793;SDS011;64418;47.536;19.074;2022-12-07T11:08:47;6.75;;;4.72;;
75793;SDS011;64418;47.536;19.074;2022-12-07T11:11:47;7.37;;;4.75;;
75793;SDS011;64418;47.536;19.074;2022-12-07T11:14:41;7.28;;;4.55;;
75793;SDS011;64418;47.536;19.074;2022-12-07T11:17:36;7.68;;;4.70;;
75793;SDS011;64418;47.536;19.074;2022-12-07T11:20:36;8.23;;;4.90;;
75793;SDS011;64418;47.536;19.074;2022-12-07T11:23:30;7.10;;;4.73;;
75793;SDS011;64418;47.536;19.074;2022-12-07T11:26:36;7.22;;;5.00;;
75793;SDS011;64418;47.536;19.074;2022-12-07T11:29:36;12.35;;;5.90;;
75793;SDS011;64418;47.536;19.074;2022-12-07T11:32:45;7.10;;;4.80;;
75793;SDS011;64418;47.536;19.074;2022-12-07T11:35:54;7.40;;;4.80;;
75793;SDS011;64418;47.536;19.074;2022-12-07T11:38:50;9.40;;;4.83;;
75793;SDS011;64418;47.536;19.074;2022-12-07T11:41:41;8.82;;;5.10;;
75793;SDS011;64418;47.536;19.074;2022-12-07T11:44:30;8.63;;;4.30;;
75793;SDS011;64418;47.536;19.074;2022-12-07T11:47:24;7.07;;;4.28;;
75793;SDS011;64418;47.536;19.074;2022-12-07T11:50:23;9.35;;;4.60;;
75793;SDS011;64418;47.536;19.074;2022-12-07T11:53:16;8.20;;;5.20;;
75793;SDS011;64418;47.536;19.074;2022-12-07T11:56:07;9.25;;;5.22;;
75793;SDS011;64418;47.536;19.074;2022-12-07T11:58:59;8.07;;;4.55;;
75793;SDS011;64418;47.536;19.074;2022-12-07T12:01:51;7.95;;;4.05;;
75793;SDS011;64418;47.536;19.074;2022-12-07T12:04:46;7.30;;;4.07;;
75793;SDS011;64418;47.536;19.074;2022-12-07T12:07:38;8.43;;;4.47;;
75793;SDS011;64418;47.536;19.074;2022-12-07T12:10:26;7.15;;;4.00;;
75793;SDS011;64418;47.536;19.074;2022-12-07T12:16:59;6.32;;;3.78;;
75793;SDS011;64418;47.536;19.074;2022-12-07T12:20:00;8.55;;;4.00;;
75793;SDS011;64418;47.536;19.074;2022-12-07T12:22:53;7.80;;;3.93;;
75793;SDS011;64418;47.536;19.074;2022-12-07T12:25:44;7.22;;;4.12;;
75793;SDS011;64418;47.536;19.074;2022-12-07T12:28:33;7.68;;;4.87;;
75793;SDS011;64418;47.536;19.074;2022-12-07T12:31:33;10.27;;;5.40;;
75793;SDS011;64418;47.536;19.074;2022-12-07T12:34:32;6.90;;;4.90;;
75793;SDS011;64418;47.536;19.074;2022-12-07T12:37:39;7.80;;;5.23;;
75793;SDS011;64418;47.536;19.074;2022-12-07T12:43:41;8.90;;;5.10;;
75793;SDS011;64418;47.536;19.074;2022-12-07T12:46:47;7.30;;;4.78;;
75793;SDS011;64418;47.536;19.074;2022-12-07T12:49:36;7.37;;;4.97;;
75793;SDS011;64418;47.536;19.074;2022-12-07T13:02:21;10.20;;;4.60;;
75793;SDS011;64418;47.536;19.074;2022-12-07T13:05:16;7.20;;;4.22;;
75793;SDS011;64418;47.536;19.074;2022-12-07T13:08:11;8.53;;;4.43;;
75793;SDS011;64418;47.536;19.074;2022-12-07T13:11:18;6.43;;;4.07;;
75793;SDS011;64418;47.536;19.074;2022-12-07T13:20:47;6.12;;;4.05;;
75793;SDS011;64418;47.536;19.074;2022-12-07T13:23:37;6.63;;;3.97;;
75793;SDS011;64418;47.536;19.074;2022-12-07T13:26:37;5.87;;;4.00;;
75793;SDS011;64418;47.536;19.074;2022-12-07T13:29:27;7.37;;;4.28;;
75793;SDS011;64418;47.536;19.074;2022-12-07T13:32:23;6.22;;;4.25;;
75793;SDS011;64418;47.536;19.074;2022-12-07T13:38:25;8.57;;;4.30;;
75793;SDS011;64418;47.536;19.074;2022-12-07T13:41:14;6.55;;;4.12;;
75793;SDS011;64418;47.536;19.074;2022-12-07T13:44:02;7.65;;;4.53;;
75793;SDS011;64418;47.536;19.074;2022-12-07T13:46:56;7.47;;;4.75;;
75793;SDS011;64418;47.536;19.074;2022-12-07T13:49:49;9.98;;;5.22;;
75793;SDS011;64418;47.536;19.074;2022-12-07T13:52:42;13.80;;;5.47;;
75793;SDS011;64418;47.536;19.074;2022-12-07T13:55:29;9.00;;;5.43;;
75793;SDS011;64418;47.536;19.074;2022-12-07T13:58:15;10.00;;;4.90;;
75793;SDS011;64418;47.536;19.074;2022-12-07T14:01:04;9.70;;;5.00;;
75793;SDS011;64418;47.536;19.074;2022-12-07T14:03:50;11.95;;;5.60;;
75793;SDS011;64418;47.536;19.074;2022-12-07T14:06:36;8.63;;;5.00;;
75793;SDS011;64418;47.536;19.074;2022-12-07T14:09:35;8.23;;;4.63;;
75793;SDS011;64418;47.536;19.074;2022-12-07T14:12:21;8.15;;;4.87;;
75793;SDS011;64418;47.536;19.074;2022-12-07T14:15:15;8.63;;;5.40;;
75793;SDS011;64418;47.536;19.074;2022-12-07T14:21:14;12.20;;;6.37;;
75793;SDS011;64418;47.536;19.074;2022-12-07T14:27:15;7.68;;;4.90;;
75793;SDS011;64418;47.536;19.074;2022-12-07T14:30:03;10.38;;;5.18;;
75793;SDS011;64418;47.536;19.074;2022-12-07T14:32:51;11.65;;;5.40;;
75793;SDS011;64418;47.536;19.074;2022-12-07T14:35:39;12.43;;;5.30;;
75793;SDS011;64418;47.536;19.074;2022-12-07T14:38:25;14.10;;;6.63;;
75793;SDS011;64418;47.536;19.074;2022-12-07T14:41:12;14.30;;;6.37;;
75793;SDS011;64418;47.536;19.074;2022-12-07T14:44:07;8.98;;;4.85;;
75793;SDS011;64418;47.536;19.074;2022-12-07T14:46:54;8.25;;;5.10;;
75793;SDS011;64418;47.536;19.074;2022-12-07T14:49:40;8.05;;;5.03;;
75793;SDS011;64418;47.536;19.074;2022-12-07T14:52:27;10.87;;;5.37;;
75793;SDS011;64418;47.536;19.074;2022-12-07T14:55:14;9.73;;;5.07;;
75793;SDS011;64418;47.536;19.074;2022-12-07T14:58:05;12.70;;;5.20;;
75793;SDS011;64418;47.536;19.074;2022-12-07T15:00:53;8.10;;;5.22;;
75793;SDS011;64418;47.536;19.074;2022-12-07T15:03:39;9.95;;;5.97;;
75793;SDS011;64418;47.536;19.074;2022-12-07T15:06:25;10.93;;;6.53;;
75793;SDS011;64418;47.536;19.074;2022-12-07T15:09:11;15.38;;;5.70;;
75793;SDS011;64418;47.536;19.074;2022-12-07T15:11:57;12.48;;;5.50;;
75793;SDS011;64418;47.536;19.074;2022-12-07T15:14:43;14.43;;;6.30;;
75793;SDS011;64418;47.536;19.074;2022-12-07T15:17:31;12.20;;;6.62;;
75793;SDS011;64418;47.536;19.074;2022-12-07T15:20:17;11.30;;;6.33;;
75793;SDS011;64418;47.536;19.074;2022-12-07T15:23:03;13.00;;;6.15;;
75793;SDS011;64418;47.536;19.074;2022-12-07T15:25:49;11.55;;;5.62;;
75793;SDS011;64418;47.536;19.074;2022-12-07T15:28:35;9.45;;;5.32;;
75793;SDS011;64418;47.536;19.074;2022-12-07T15:31:21;12.93;;;6.07;;
75793;SDS011;64418;47.536;19.074;2022-12-07T15:34:08;12.70;;;6.33;;
75793;SDS011;64418;47.536;19.074;2022-12-07T15:36:54;15.80;;;7.15;;
75793;SDS011;64418;47.536;19.074;2022-12-07T15:39:40;14.48;;;6.07;;
75793;SDS011;64418;47.536;19.074;2022-12-07T15:42:26;15.55;;;6.65;;
75793;SDS011;64418;47.536;19.074;2022-12-07T15:45:12;11.95;;;5.97;;
75793;SDS011;64418;47.536;19.074;2022-12-07T15:47:58;15.27;;;6.30;;
75793;SDS011;64418;47.536;19.074;2022-12-07T15:50:45;12.02;;;5.82;;
75793;SDS011;64418;47.536;19.074;2022-12-07T15:53:31;10.27;;;5.47;;
75793;SDS011;64418;47.536;19.074;2022-12-07T15:56:21;11.00;;;5.68;;
75793;SDS011;64418;47.536;19.074;2022-12-07T15:59:06;10.23;;;5.53;;
75793;SDS011;64418;47.536;19.074;2022-12-07T16:01:53;13.70;;;5.77;;
75793;SDS011;64418;47.536;19.074;2022-12-07T16:04:39;14.68;;;6.15;;
75793;SDS011;64418;47.536;19.074;2022-12-07T16:07:26;11.05;;;5.65;;
75793;SDS011;64418;47.536;19.074;2022-12-07T16:10:12;10.70;;;5.53;;
75793;SDS011;64418;47.536;19.074;2022-12-07T16:12:59;18.12;;;6.15;;
75793;SDS011;64418;47.536;19.074;2022-12-07T16:15:45;12.00;;;5.50;;
75793;SDS011;64418;47.536;19.074;2022-12-07T16:18:32;10.85;;;5.68;;
75793;SDS011;64418;47.536;19.074;2022-12-07T16:21:18;11.93;;;5.85;;
75793;SDS011;64418;47.536;19.074;2022-12-07T16:24:06;11.65;;;5.40;;
75793;SDS011;64418;47.536;19.074;2022-12-07T16:26:54;9.48;;;5.40;;
75793;SDS011;64418;47.536;19.074;2022-12-07T16:29:40;9.50;;;5.40;;
75793;SDS011;64418;47.536;19.074;2022-12-07T16:32:25;12.18;;;5.75;;
75793;SDS011;64418;47.536;19.074;2022-12-07T16:35:11;10.90;;;5.62;;
75793;SDS011;64418;47.536;19.074;2022-12-07T16:37:58;10.70;;;5.75;;
75793;SDS011;64418;47.536;19.074;2022-12-07T16:40:45;11.43;;;5.87;;
75793;SDS011;64418;47.536;19.074;2022-12-07T16:43:32;10.60;;;6.07;;
75793;SDS011;64418;47.536;19.074;2022-12-07T16:46:18;13.85;;;6.00;;
75793;SDS011;64418;47.536;19.074;2022-12-07T16:49:04;11.52;;;5.78;;
75793;SDS011;64418;47.536;19.074;2022-12-07T16:51:50;11.43;;;5.90;;
75793;SDS011;64418;47.536;19.074;2022-12-07T16:54:37;13.88;;;5.80;;
75793;SDS011;64418;47.536;19.074;2022-12-07T16:57:24;12.63;;;6.23;;
75793;SDS011;64418;47.536;19.074;2022-12-07T17:00:11;11.95;;;6.25;;
75793;SDS011;64418;47.536;19.074;2022-12-07T17:02:57;14.30;;;6.75;;